createdAt,value
2018-09-01T00:01:29.230Z,0.50
2018-09-01T00:03:31.506Z,0.50
2018-09-01T00:05:33.766Z,0.40
2018-09-01T00:07:35.974Z,0.55
2018-09-01T00:09:38.246Z,0.40
2018-09-01T00:11:40.533Z,0.53
2018-09-01T00:13:42.755Z,0.70
2018-09-01T00:15:45.053Z,0.40
2018-09-01T00:17:47.298Z,0.42
2018-09-01T00:19:49.524Z,0.40
2018-09-01T00:21:51.809Z,0.60
2018-09-01T00:23:54.053Z,0.57
2018-09-01T00:25:56.325Z,0.70
2018-09-01T00:27:58.620Z,0.60
2018-09-01T00:30:00.851Z,0.40
2018-09-01T00:32:03.080Z,0.40
2018-09-01T00:34:05.345Z,0.40
2018-09-01T00:36:07.578Z,0.50
2018-09-01T00:38:09.855Z,0.60
2018-09-01T00:40:12.087Z,0.55
2018-09-01T00:42:14.317Z,0.55
2018-09-01T00:44:16.599Z,0.47
2018-09-01T00:46:18.817Z,0.70
2018-09-01T00:48:21.095Z,0.40
2018-09-01T00:50:23.330Z,0.40
2018-09-01T00:52:25.584Z,0.50
2018-09-01T00:54:27.832Z,0.33
2018-09-01T00:56:30.137Z,0.62
2018-09-01T00:58:32.392Z,0.60
2018-09-01T01:00:34.669Z,0.60
2018-09-01T01:02:36.908Z,0.47
2018-09-01T01:04:39.179Z,0.30
2018-09-01T01:06:41.411Z,0.60
2018-09-01T01:08:43.654Z,0.50
2018-09-01T01:10:45.938Z,0.50
2018-09-01T01:12:48.188Z,0.75
2018-09-01T01:14:50.432Z,0.50
2018-09-01T01:16:52.660Z,0.65
2018-09-01T01:18:54.926Z,0.40
2018-09-01T01:20:57.164Z,0.50
2018-09-01T01:22:59.452Z,0.72
2018-09-01T01:25:01.710Z,0.55
2018-09-01T01:27:03.935Z,0.50
2018-09-01T01:29:06.222Z,0.53
2018-09-01T01:31:08.460Z,0.40
2018-09-01T01:33:10.730Z,0.62
2018-09-01T01:35:13.019Z,0.57
2018-09-01T01:37:15.271Z,0.53
2018-09-01T01:39:17.566Z,0.40
2018-09-01T01:41:19.802Z,0.50
2018-09-01T01:43:22.083Z,0.50
2018-09-01T01:45:24.324Z,0.50
2018-09-01T01:47:26.578Z,0.70
2018-09-01T01:49:28.876Z,0.45
2018-09-01T01:51:31.095Z,0.70
2018-09-01T01:53:33.326Z,0.53
2018-09-01T01:55:35.611Z,0.82
2018-09-01T01:57:37.845Z,0.60
2018-09-01T01:59:40.141Z,0.65
2018-09-01T02:01:42.418Z,0.50
2018-09-01T02:03:44.695Z,0.40
2018-09-01T02:05:46.922Z,0.42
2018-09-01T02:07:49.204Z,0.60
2018-09-01T02:09:51.433Z,0.40
2018-09-01T02:11:53.685Z,0.50
2018-09-01T02:13:55.925Z,0.55
2018-09-01T02:15:58.185Z,0.50
2018-09-01T02:18:00.424Z,0.37
2018-09-01T02:20:02.700Z,0.57
2018-09-01T02:22:04.935Z,0.60
2018-09-01T02:24:07.229Z,0.62
2018-09-01T02:26:09.453Z,0.47
2018-09-01T02:28:11.686Z,0.60
2018-09-01T02:30:13.972Z,0.40
2018-09-01T02:32:16.239Z,0.65
2018-09-01T02:34:18.511Z,0.88
2018-09-01T02:36:20.753Z,0.40
2018-09-01T02:38:23.014Z,0.40
2018-09-01T02:40:25.282Z,0.50
2018-09-01T02:42:27.533Z,0.50
2018-09-01T02:44:29.771Z,0.35
2018-09-01T02:46:32.049Z,0.50
2018-09-01T02:48:34.284Z,0.50
2018-09-01T02:50:36.545Z,0.70
2018-09-01T02:52:38.800Z,0.60
2018-09-01T02:54:41.031Z,0.30
2018-09-01T02:56:43.307Z,0.60
2018-09-01T02:58:45.542Z,0.50
2018-09-01T03:00:47.763Z,0.60
2018-09-01T03:02:50.042Z,0.50
2018-09-01T03:04:52.285Z,0.40
2018-09-01T03:06:54.509Z,0.50
2018-09-01T03:08:56.775Z,0.50
2018-09-01T03:10:59.001Z,0.70
2018-09-01T03:13:01.288Z,0.80
2018-09-01T03:15:03.547Z,0.37
2018-09-01T03:17:05.771Z,0.62
2018-09-01T03:19:08.062Z,0.62
2018-09-01T03:21:10.288Z,0.50
2018-09-01T03:23:12.562Z,0.50
2018-09-01T03:25:14.791Z,0.60
2018-09-01T03:27:17.061Z,0.50
2018-09-01T03:29:19.302Z,0.60
2018-09-01T03:31:21.578Z,0.75
2018-09-01T03:33:23.832Z,0.53
2018-09-01T03:35:26.109Z,0.57
2018-09-01T03:37:28.371Z,0.40
2018-09-01T03:39:30.661Z,0.40
2018-09-01T03:41:32.926Z,0.50
2018-09-01T03:43:35.171Z,0.70
2018-09-01T03:45:37.414Z,0.62
2018-09-01T03:47:39.712Z,0.40
2018-09-01T03:49:41.907Z,0.50
2018-09-01T03:51:44.177Z,0.60
2018-09-01T03:53:46.413Z,0.47
2018-09-01T03:55:48.661Z,0.50
2018-09-01T03:57:50.912Z,0.60
2018-09-01T03:59:53.193Z,0.50
2018-09-01T04:01:55.472Z,0.40
2018-09-01T04:03:57.716Z,0.42
2018-09-01T04:05:59.960Z,0.60
2018-09-01T04:08:02.257Z,0.50
2018-09-01T04:10:04.481Z,0.53
2018-09-01T04:12:06.759Z,0.80
2018-09-01T04:14:09.002Z,0.40
2018-09-01T04:16:11.291Z,0.33
2018-09-01T04:18:13.529Z,0.60
2018-09-01T04:20:16.296Z,0.70
2018-09-01T04:22:18.541Z,0.53
2018-09-01T04:24:20.939Z,0.60
2018-09-01T04:26:23.199Z,0.57
2018-09-01T04:28:25.467Z,0.70
2018-09-01T04:30:27.722Z,0.47
2018-09-01T04:32:30.027Z,0.40
2018-09-01T04:34:32.267Z,0.30
2018-09-01T04:36:34.513Z,0.50
2018-09-01T04:38:36.783Z,0.50
2018-09-01T04:40:39.015Z,0.47
2018-09-01T04:42:41.288Z,0.50
2018-09-01T04:44:43.537Z,0.70
2018-09-01T04:46:45.803Z,0.70
2018-09-01T04:48:48.027Z,0.80
2018-09-01T04:50:50.325Z,0.57
2018-09-01T04:52:52.568Z,0.60
2018-09-01T04:54:54.863Z,0.40
2018-09-01T04:56:57.083Z,0.70
2018-09-01T04:58:59.365Z,0.57
2018-09-01T05:01:01.730Z,0.57
2018-09-01T05:03:03.888Z,0.53
2018-09-01T05:05:06.125Z,0.40
2018-09-01T05:07:08.363Z,0.53
2018-09-01T05:09:10.636Z,0.50
2018-09-01T05:11:12.869Z,0.60
2018-09-01T05:13:15.134Z,0.50
2018-09-01T05:15:17.376Z,0.65
2018-09-01T05:17:19.621Z,0.53
2018-09-01T05:19:21.904Z,0.50
2018-09-01T05:21:24.146Z,0.78
2018-09-01T05:23:26.381Z,0.57
2018-09-01T05:25:28.657Z,0.50
2018-09-01T05:27:30.943Z,0.60
2018-09-01T05:29:33.196Z,0.50
2018-09-01T05:31:35.474Z,0.57
2018-09-01T05:33:37.708Z,0.62
2018-09-01T05:35:40.005Z,0.57
2018-09-01T05:37:42.236Z,0.57
2018-09-01T05:39:44.509Z,0.62
2018-09-01T05:41:46.789Z,0.47
2018-09-01T05:43:49.132Z,0.53
2018-09-01T05:45:51.285Z,0.60
2018-09-01T05:47:53.521Z,0.70
2018-09-01T05:49:55.791Z,0.50
2018-09-01T05:51:58.045Z,0.40
2018-09-01T05:54:00.287Z,0.57
2018-09-01T05:56:02.576Z,0.53
2018-09-01T05:58:04.803Z,0.50
2018-09-01T06:00:07.065Z,0.62
2018-09-01T06:02:09.330Z,0.70
2018-09-01T06:04:11.566Z,0.30
2018-09-01T06:06:13.934Z,0.68
2018-09-01T06:08:16.123Z,0.65
2018-09-01T06:10:18.389Z,0.50
2018-09-01T06:12:20.649Z,0.50
2018-09-01T06:14:22.939Z,0.47
2018-09-01T06:16:25.178Z,0.57
2018-09-01T06:18:27.429Z,0.40
2018-09-01T06:20:29.713Z,0.40
2018-09-01T06:22:31.953Z,0.47
2018-09-01T06:24:34.259Z,0.50
2018-09-01T06:26:36.544Z,0.47
2018-09-01T06:28:38.806Z,0.50
2018-09-01T06:30:41.037Z,0.40
2018-09-01T06:32:43.361Z,0.50
2018-09-01T06:34:45.592Z,0.50
2018-09-01T06:36:47.824Z,0.33
2018-09-01T06:38:50.066Z,0.60
2018-09-01T06:40:52.334Z,0.45
2018-09-01T06:42:54.629Z,0.40
2018-09-01T06:44:56.820Z,0.40
2018-09-01T06:46:59.102Z,0.50
2018-09-01T06:49:01.357Z,0.40
2018-09-01T06:51:03.605Z,0.68
2018-09-01T06:53:05.882Z,0.40
2018-09-01T06:55:08.116Z,0.37
2018-09-01T06:57:10.399Z,0.62
2018-09-01T06:59:12.671Z,0.50
2018-09-01T07:01:14.947Z,0.50
2018-09-01T07:03:17.212Z,0.50
2018-09-01T07:05:19.472Z,0.55
2018-09-01T07:07:21.701Z,0.53
2018-09-01T07:09:23.956Z,0.50
2018-09-01T07:11:26.188Z,0.40
2018-09-01T07:13:28.470Z,0.60
2018-09-01T07:15:30.690Z,0.60
2018-09-01T07:17:32.965Z,0.50
2018-09-01T07:19:35.194Z,0.60
2018-09-01T07:21:37.476Z,0.47
2018-09-01T07:23:39.728Z,0.60
2018-09-01T07:25:41.981Z,0.60
2018-09-01T07:27:44.239Z,0.47
2018-09-01T07:29:46.490Z,0.60
2018-09-01T07:31:48.768Z,0.45
2018-09-01T07:33:51.046Z,0.47
2018-09-01T07:35:53.278Z,0.60
2018-09-01T07:37:55.523Z,0.40
2018-09-01T07:39:57.802Z,0.65
2018-09-01T07:42:00.054Z,0.40
2018-09-01T07:44:02.283Z,0.57
2018-09-01T07:46:04.574Z,0.55
2018-09-01T07:48:06.898Z,0.40
2018-09-01T07:50:09.182Z,0.50
2018-09-01T07:52:11.406Z,0.47
2018-09-01T07:54:13.699Z,0.62
2018-09-01T07:56:16.015Z,0.50
2018-09-01T07:58:18.564Z,0.50
2018-09-01T08:00:20.849Z,0.47
2018-09-01T08:02:23.079Z,0.60
2018-09-01T08:04:25.340Z,0.35
2018-09-01T08:06:27.602Z,0.70
2018-09-01T08:08:29.842Z,0.50
2018-09-01T08:10:32.086Z,0.57
2018-09-01T08:12:34.356Z,0.70
2018-09-01T08:14:36.652Z,0.50
2018-09-01T08:16:39.256Z,0.53
2018-09-01T08:18:41.548Z,0.57
2018-09-01T08:20:43.802Z,0.65
2018-09-01T08:22:46.176Z,0.40
2018-09-01T08:24:48.442Z,0.60
2018-09-01T08:26:50.673Z,0.45
2018-09-01T08:28:52.912Z,0.47
2018-09-01T08:30:55.191Z,0.57
2018-09-01T08:32:57.445Z,0.50
2018-09-01T08:34:59.678Z,0.20
2018-09-01T08:37:01.967Z,0.40
2018-09-01T08:39:04.236Z,0.50
2018-09-01T08:41:06.481Z,0.50
2018-09-01T08:43:08.752Z,0.37
2018-09-01T08:45:11.063Z,0.30
2018-09-01T08:47:13.302Z,0.62
2018-09-01T08:49:15.540Z,0.50
2018-09-01T08:51:17.837Z,0.40
2018-09-01T08:53:20.111Z,0.50
2018-09-01T08:55:22.423Z,0.62
2018-09-01T08:57:24.687Z,0.40
2018-09-01T08:59:26.955Z,0.45
2018-09-01T09:01:29.199Z,0.60
2018-09-01T09:03:31.465Z,0.60
2018-09-01T09:05:33.770Z,0.50
2018-09-01T09:07:36.029Z,0.40
2018-09-01T09:09:38.301Z,0.55
2018-09-01T09:11:40.651Z,0.40
2018-09-01T09:13:42.839Z,0.40
2018-09-01T09:15:45.133Z,0.50
2018-09-01T09:17:47.425Z,0.68
2018-09-01T09:19:49.691Z,0.50
2018-09-01T09:21:51.929Z,0.30
2018-09-01T09:23:54.213Z,0.40
2018-09-01T09:25:56.473Z,0.40
2018-09-01T09:27:58.752Z,0.53
2018-09-01T09:30:01.052Z,0.55
2018-09-01T09:32:03.295Z,0.40
2018-09-01T09:34:05.576Z,0.57
2018-09-01T09:36:07.814Z,0.50
2018-09-01T09:38:10.100Z,0.60
2018-09-01T09:40:12.343Z,0.50
2018-09-01T09:42:14.645Z,0.80
2018-09-01T09:44:16.856Z,0.50
2018-09-01T09:46:19.157Z,0.70
2018-09-01T09:48:21.406Z,0.47
2018-09-01T09:50:23.689Z,0.50
2018-09-01T09:52:25.935Z,0.50
2018-09-01T09:54:28.225Z,0.60
2018-09-01T09:56:30.505Z,0.30
2018-09-01T09:58:32.759Z,0.35
2018-09-01T10:00:35.123Z,0.60
2018-09-01T10:02:37.496Z,0.50
2018-09-01T10:04:39.742Z,0.47
2018-09-01T10:06:42.016Z,0.53
2018-09-01T10:08:44.300Z,0.33
2018-09-01T10:10:46.532Z,0.30
2018-09-01T10:12:48.827Z,0.40
2018-09-01T10:14:51.104Z,0.50
2018-09-01T10:16:53.350Z,0.30
2018-09-01T10:18:55.731Z,0.50
2018-09-01T10:20:57.983Z,0.40
2018-09-01T10:23:00.205Z,0.50
2018-09-01T10:25:02.779Z,0.50
2018-09-01T10:27:05.034Z,0.30
2018-09-01T10:29:07.269Z,0.33
2018-09-01T10:31:09.555Z,0.50
2018-09-01T10:33:11.843Z,0.50
2018-09-01T10:35:14.058Z,0.40
2018-09-01T10:37:16.474Z,0.28
2018-09-01T10:39:18.777Z,0.30
2018-09-01T10:41:21.002Z,0.40
2018-09-01T10:43:23.237Z,0.40
2018-09-01T10:45:25.536Z,0.53
2018-09-01T10:47:27.775Z,0.50
2018-09-01T10:49:30.003Z,0.50
2018-09-01T10:51:32.291Z,0.60
2018-09-01T10:53:34.526Z,0.62
2018-09-01T10:55:36.804Z,0.40
2018-09-01T10:57:39.081Z,0.40
2018-09-01T10:59:41.419Z,0.60
2018-09-01T11:01:43.578Z,0.37
2018-09-01T11:03:45.872Z,0.50
2018-09-01T11:05:48.110Z,0.40
2018-09-01T11:07:50.372Z,0.60
2018-09-01T11:09:52.624Z,0.50
2018-09-01T11:11:54.887Z,0.57
2018-09-01T11:13:57.130Z,0.47
2018-09-01T11:15:59.376Z,0.50
2018-09-01T11:18:01.695Z,0.50
2018-09-01T11:20:03.957Z,0.40
2018-09-01T11:22:06.190Z,0.37
2018-09-01T11:24:08.468Z,0.30
2018-09-01T11:26:10.717Z,0.35
2018-09-01T11:28:13.115Z,0.50
2018-09-01T11:30:15.765Z,0.42
2018-09-01T11:32:18.036Z,0.40
2018-09-01T11:34:20.310Z,0.42
2018-09-01T11:36:22.616Z,0.30
2018-09-01T11:38:24.868Z,0.30
2018-09-01T11:40:28.130Z,0.50
2018-09-01T11:42:30.423Z,0.60
2018-09-01T11:44:32.598Z,0.78
2018-09-01T11:46:34.886Z,0.70
2018-09-01T11:48:37.159Z,0.50
2018-09-01T11:50:39.442Z,0.40
2018-09-01T11:52:41.730Z,0.65
2018-09-01T11:54:43.970Z,0.40
2018-09-01T11:56:46.248Z,0.53
2018-09-01T11:58:48.637Z,0.40
2018-09-01T12:00:50.783Z,0.30
2018-09-01T12:02:53.018Z,0.40
2018-09-01T12:04:55.264Z,0.30
2018-09-01T12:06:57.556Z,0.40
2018-09-01T12:08:59.890Z,0.50
2018-09-01T12:11:02.502Z,0.70
2018-09-01T12:13:04.800Z,0.40
2018-09-01T12:15:07.048Z,0.40
2018-09-01T12:17:09.304Z,0.37
2018-09-01T12:19:11.594Z,0.60
2018-09-01T12:21:13.818Z,0.30
2018-09-01T12:23:16.052Z,0.40
2018-09-01T12:25:18.335Z,0.55
2018-09-01T12:27:21.594Z,0.28
2018-09-01T12:29:23.868Z,0.50
2018-09-01T12:31:26.106Z,0.30
2018-09-01T12:33:28.402Z,0.40
2018-09-01T12:35:30.704Z,0.50
2018-09-01T12:37:32.966Z,0.57
2018-09-01T12:39:35.224Z,0.50
2018-09-01T12:41:37.498Z,0.70
2018-09-01T12:43:39.764Z,0.35
2018-09-01T12:45:42.005Z,0.40
2018-09-01T12:47:44.267Z,0.50
2018-09-01T12:49:46.549Z,0.30
2018-09-01T12:51:48.800Z,0.47
2018-09-01T12:53:51.062Z,0.50
2018-09-01T12:55:53.342Z,0.50
2018-09-01T12:57:55.587Z,0.40
2018-09-01T12:59:57.864Z,0.45
2018-09-01T13:02:00.099Z,0.57
2018-09-01T13:04:02.386Z,0.50
2018-09-01T13:06:04.670Z,0.55
2018-09-01T13:08:06.945Z,0.50
2018-09-01T13:10:09.138Z,0.50
2018-09-01T13:12:11.460Z,0.50
2018-09-01T13:14:13.750Z,0.40
2018-09-01T13:16:16.028Z,0.50
2018-09-01T13:18:18.248Z,0.60
2018-09-01T13:20:20.537Z,0.50
2018-09-01T13:22:22.835Z,0.50
2018-09-01T13:24:25.080Z,0.60
2018-09-01T13:26:27.357Z,0.50
2018-09-01T13:28:29.626Z,0.42
2018-09-01T13:30:31.893Z,0.50
2018-09-01T13:32:34.124Z,0.40
2018-09-01T13:34:36.376Z,0.35
2018-09-01T13:36:38.668Z,0.33
2018-09-01T13:38:40.919Z,0.30
2018-09-01T13:40:43.163Z,0.45
2018-09-01T13:42:45.437Z,0.50
2018-09-01T13:44:47.728Z,0.40
2018-09-01T13:46:49.937Z,0.50
2018-09-01T13:48:52.177Z,0.50
2018-09-01T13:50:54.464Z,0.40
2018-09-01T13:52:56.714Z,0.78
2018-09-01T13:54:59.016Z,0.60
2018-09-01T13:57:01.257Z,0.75
2018-09-01T13:59:03.549Z,0.70
2018-09-01T14:01:05.782Z,0.70
2018-09-01T14:03:08.070Z,0.50
2018-09-01T14:05:10.350Z,0.40
2018-09-01T14:07:12.584Z,0.57
2018-09-01T14:09:14.824Z,0.75
2018-09-01T14:11:17.092Z,0.50
2018-09-01T14:13:19.339Z,0.50
2018-09-01T14:15:21.587Z,0.53
2018-09-01T14:17:23.872Z,0.60
2018-09-01T14:19:26.153Z,0.45
2018-09-01T14:21:28.421Z,0.55
2018-09-01T14:23:30.695Z,0.50
2018-09-01T14:25:32.952Z,0.60
2018-09-01T14:27:35.201Z,0.50
2018-09-01T14:29:37.433Z,0.80
2018-09-01T14:31:39.703Z,0.70
2018-09-01T14:33:41.956Z,0.80
2018-09-01T14:35:44.235Z,0.62
2018-09-01T14:37:46.468Z,0.53
2018-09-01T14:39:48.761Z,0.55
2018-09-01T14:41:51.001Z,0.45
2018-09-01T14:43:53.305Z,0.50
2018-09-01T14:45:55.541Z,0.57
2018-09-01T14:47:57.809Z,0.50
2018-09-01T14:50:00.095Z,0.60
2018-09-01T14:52:02.338Z,0.60
2018-09-01T14:54:04.624Z,0.47
2018-09-01T14:56:06.902Z,0.60
2018-09-01T14:58:09.187Z,0.60
2018-09-01T15:00:11.438Z,0.70
2018-09-01T15:02:13.665Z,0.50
2018-09-01T15:04:16.017Z,0.55
2018-09-01T15:06:18.245Z,0.70
2018-09-01T15:08:20.535Z,0.65
2018-09-01T15:10:22.863Z,0.50
2018-09-01T15:12:25.055Z,0.60
2018-09-01T15:14:27.325Z,0.60
2018-09-01T15:16:29.588Z,0.65
2018-09-01T15:18:31.850Z,0.57
2018-09-01T15:20:34.087Z,0.57
2018-09-01T15:22:36.326Z,0.60
2018-09-01T15:24:38.591Z,0.75
2018-09-01T15:26:40.878Z,0.70
2018-09-01T15:28:43.114Z,0.57
2018-09-01T15:30:45.400Z,0.98
2018-09-01T15:32:47.649Z,0.57
2018-09-01T15:34:49.906Z,0.60
2018-09-01T15:36:52.184Z,0.65
2018-09-01T15:38:54.424Z,0.72
2018-09-01T15:40:56.709Z,0.50
2018-09-01T15:42:58.966Z,0.62
2018-09-01T15:45:01.255Z,0.72
2018-09-01T15:47:03.473Z,0.57
2018-09-01T15:49:05.717Z,0.60
2018-09-01T15:51:08.014Z,0.57
2018-09-01T15:53:10.238Z,0.78
2018-09-01T15:55:12.479Z,0.80
2018-09-01T15:57:14.761Z,0.78
2018-09-01T15:59:17.060Z,0.50
2018-09-01T16:01:19.290Z,0.60
2018-09-01T16:03:21.542Z,0.50
2018-09-01T16:05:23.821Z,0.80
2018-09-01T16:07:26.047Z,0.50
2018-09-01T16:09:28.356Z,0.62
2018-09-01T16:11:30.589Z,0.65
2018-09-01T16:13:32.871Z,0.75
2018-09-01T16:15:35.146Z,0.57
2018-09-01T16:17:37.458Z,0.57
2018-09-01T16:19:39.733Z,0.50
2018-09-01T16:21:41.984Z,0.60
2018-09-01T16:23:44.215Z,0.62
2018-09-01T16:25:46.496Z,0.60
2018-09-01T16:27:48.736Z,0.70
2018-09-01T16:29:50.981Z,0.50
2018-09-01T16:31:53.242Z,0.68
2018-09-01T16:33:55.517Z,0.80
2018-09-01T16:35:57.764Z,0.62
2018-09-01T16:37:59.993Z,0.80
2018-09-01T16:40:02.258Z,0.60
2018-09-01T16:42:04.490Z,0.70
2018-09-01T16:44:06.728Z,0.60
2018-09-01T16:46:09.006Z,0.80
2018-09-01T16:48:11.249Z,0.55
2018-09-01T16:50:13.474Z,0.70
2018-09-01T16:52:15.865Z,0.70
2018-09-01T16:54:18.036Z,0.60
2018-09-01T16:56:20.322Z,0.57
2018-09-01T16:58:22.604Z,0.70
2018-09-01T17:00:24.911Z,0.78
2018-09-01T17:02:27.092Z,0.70
2018-09-01T17:04:29.384Z,0.68
2018-09-01T17:06:31.651Z,0.75
2018-09-01T17:08:33.894Z,0.78
2018-09-01T17:10:36.131Z,0.70
2018-09-01T17:12:38.403Z,0.60
2018-09-01T17:14:40.705Z,1.00
2018-09-01T17:16:42.958Z,0.65
2018-09-01T17:18:45.244Z,0.90
2018-09-01T17:20:47.482Z,0.78
2018-09-01T17:22:49.754Z,0.75
2018-09-01T17:24:51.991Z,0.60
2018-09-01T17:26:54.262Z,0.57
2018-09-01T17:28:56.525Z,0.80
2018-09-01T17:30:58.798Z,0.70
2018-09-01T17:33:01.074Z,0.70
2018-09-01T17:35:03.324Z,0.80
2018-09-01T17:37:05.582Z,0.53
2018-09-01T17:39:07.872Z,0.70
2018-09-01T17:41:10.200Z,0.80
2018-09-01T17:43:12.432Z,0.70
2018-09-01T17:45:14.671Z,0.82
2018-09-01T17:47:16.950Z,0.60
2018-09-01T17:49:19.259Z,0.55
2018-09-01T17:51:21.562Z,0.88
2018-09-01T17:53:23.794Z,0.68
2018-09-01T17:55:26.077Z,0.78
2018-09-01T17:57:28.354Z,0.50
2018-09-01T17:59:30.605Z,0.90
2018-09-01T18:01:32.859Z,0.60
2018-09-01T18:03:35.158Z,0.60
2018-09-01T18:05:37.385Z,0.70
2018-09-01T18:07:39.681Z,0.80
2018-09-01T18:09:41.924Z,0.70
2018-09-01T18:11:44.162Z,0.70
2018-09-01T18:13:46.453Z,0.72
2018-09-01T18:15:48.685Z,0.70
2018-09-01T18:17:50.929Z,0.70
2018-09-01T18:19:53.206Z,0.80
2018-09-01T18:21:56.078Z,0.80
2018-09-01T18:23:58.319Z,0.60
2018-09-01T18:26:00.597Z,0.70
2018-09-01T18:28:02.824Z,0.80
2018-09-01T18:30:05.127Z,0.95
2018-09-01T18:32:07.372Z,0.80
2018-09-01T18:34:09.630Z,0.57
2018-09-01T18:36:11.885Z,0.80
2018-09-01T18:38:14.157Z,0.70
2018-09-01T18:40:16.427Z,0.60
2018-09-01T18:42:18.676Z,0.75
2018-09-01T18:44:20.968Z,0.70
2018-09-01T18:46:23.246Z,0.70
2018-09-01T18:48:25.522Z,0.90
2018-09-01T18:50:27.787Z,0.78
2018-09-01T18:52:30.053Z,0.75
2018-09-01T18:54:32.310Z,0.70
2018-09-01T18:56:34.602Z,0.80
2018-09-01T18:58:36.871Z,0.88
2018-09-01T19:00:39.100Z,0.80
2018-09-01T19:02:41.356Z,0.80
2018-09-01T19:04:43.659Z,0.75
2018-09-01T19:06:45.875Z,0.72
2018-09-01T19:08:48.151Z,0.98
2018-09-01T19:10:50.392Z,0.70
2018-09-01T19:12:52.647Z,0.70
2018-09-01T19:14:54.906Z,0.65
2018-09-01T19:16:57.159Z,0.98
2018-09-01T19:18:59.404Z,0.70
2018-09-01T19:21:01.688Z,0.82
2018-09-01T19:23:03.918Z,0.80
2018-09-01T19:25:06.151Z,0.70
2018-09-01T19:27:08.504Z,0.90
2018-09-01T19:29:10.678Z,0.68
2018-09-01T19:31:12.953Z,0.80
2018-09-01T19:33:15.223Z,0.62
2018-09-01T19:35:17.499Z,0.82
2018-09-01T19:37:19.733Z,0.70
2018-09-01T19:39:22.000Z,0.80
2018-09-01T19:41:24.272Z,0.90
2018-09-01T19:43:26.516Z,0.75
2018-09-01T19:45:28.987Z,0.70
2018-09-01T19:47:31.409Z,0.57
2018-09-01T19:49:33.643Z,0.90
2018-09-01T19:51:35.898Z,1.10
2018-09-01T19:53:38.210Z,0.80
2018-09-01T19:55:40.456Z,0.80
2018-09-01T19:57:42.758Z,0.90
2018-09-01T19:59:44.993Z,0.90
2018-09-01T20:01:47.249Z,0.70
2018-09-01T20:03:49.522Z,0.90
2018-09-01T20:05:51.784Z,0.60
2018-09-01T20:07:54.063Z,0.85
2018-09-01T20:09:56.325Z,0.80
2018-09-01T20:11:58.637Z,0.90
2018-09-01T20:14:00.929Z,0.60
2018-09-01T20:16:03.699Z,0.80
2018-09-01T20:18:05.985Z,0.80
2018-09-01T20:20:08.254Z,0.80
2018-09-01T20:22:10.525Z,0.85
2018-09-01T20:24:12.770Z,0.72
2018-09-01T20:26:15.046Z,0.88
2018-09-01T20:28:17.289Z,0.90
2018-09-01T20:30:19.588Z,0.82
2018-09-01T20:32:21.896Z,0.90
2018-09-01T20:34:24.101Z,0.80
2018-09-01T20:36:26.403Z,1.10
2018-09-01T20:38:28.653Z,0.90
2018-09-01T20:40:30.879Z,0.80
2018-09-01T20:42:33.167Z,0.90
2018-09-01T20:44:35.404Z,0.82
2018-09-01T20:46:37.660Z,0.80
2018-09-01T20:48:39.946Z,0.98
2018-09-01T20:50:42.191Z,0.93
2018-09-01T20:52:44.465Z,0.80
2018-09-01T20:54:46.687Z,1.10
2018-09-01T20:56:48.970Z,0.80
2018-09-01T20:58:51.273Z,0.88
2018-09-01T21:00:53.496Z,1.15
2018-09-01T21:02:55.725Z,1.10
2018-09-01T21:04:58.001Z,0.93
2018-09-01T21:07:00.281Z,0.98
2018-09-01T21:09:02.520Z,1.00
2018-09-01T21:11:04.761Z,0.93
2018-09-01T21:13:07.051Z,1.17
2018-09-01T21:15:09.279Z,1.10
2018-09-01T21:17:11.519Z,1.07
2018-09-01T21:19:13.819Z,1.10
2018-09-01T21:21:16.056Z,0.93
2018-09-01T21:23:18.300Z,0.90
2018-09-01T21:25:20.557Z,1.12
2018-09-01T21:27:22.837Z,1.22
2018-09-01T21:29:25.093Z,1.15
2018-09-01T21:31:27.328Z,1.07
2018-09-01T21:33:29.627Z,1.10
2018-09-01T21:35:31.844Z,1.05
2018-09-01T21:37:34.150Z,1.10
2018-09-01T21:39:36.438Z,1.00
2018-09-01T21:41:38.672Z,1.20
2018-09-01T21:43:40.917Z,1.20
2018-09-01T21:45:43.155Z,1.17
2018-09-01T21:47:45.446Z,1.20
2018-09-01T21:49:47.789Z,0.80
2018-09-01T21:51:50.404Z,1.02
2018-09-01T21:53:52.698Z,0.88
2018-09-01T21:55:54.991Z,1.12
2018-09-01T21:57:57.251Z,0.80
2018-09-01T21:59:59.493Z,1.27
2018-09-01T22:02:01.803Z,0.95
2018-09-01T22:04:04.074Z,0.90
2018-09-01T22:06:06.319Z,1.10
2018-09-01T22:08:08.644Z,1.17
2018-09-01T22:10:10.920Z,1.22
2018-09-01T22:12:13.183Z,1.30
2018-09-01T22:14:15.463Z,1.00
2018-09-01T22:16:17.725Z,1.27
2018-09-01T22:18:20.021Z,0.93
2018-09-01T22:20:22.306Z,1.10
2018-09-01T22:22:24.644Z,1.20
2018-09-01T22:24:26.921Z,1.22
2018-09-01T22:26:29.200Z,1.10
2018-09-01T22:28:31.633Z,0.95
2018-09-01T22:30:33.910Z,1.40
2018-09-01T22:32:36.165Z,0.90
2018-09-01T22:34:38.455Z,1.20
2018-09-01T22:36:40.762Z,1.10
2018-09-01T22:38:43.065Z,1.02
2018-09-01T22:40:45.311Z,1.00
2018-09-01T22:42:47.616Z,0.93
2018-09-01T22:44:49.868Z,1.20
2018-09-01T22:46:52.159Z,1.10
2018-09-01T22:48:54.422Z,1.30
2018-09-01T22:50:56.710Z,1.20
2018-09-01T22:52:58.962Z,1.10
2018-09-01T22:55:01.223Z,1.12
2018-09-01T22:57:03.494Z,1.05
2018-09-01T22:59:05.755Z,1.20
2018-09-01T23:01:08.030Z,1.05
2018-09-01T23:03:10.289Z,1.07
2018-09-01T23:05:12.589Z,1.30
2018-09-01T23:07:14.869Z,1.12
2018-09-01T23:09:17.176Z,1.22
2018-09-01T23:11:19.416Z,1.05
2018-09-01T23:13:21.704Z,1.00
2018-09-01T23:15:24.014Z,1.17
2018-09-01T23:17:26.249Z,1.30
2018-09-01T23:19:28.529Z,1.20
2018-09-01T23:21:30.902Z,1.05
2018-09-01T23:23:33.138Z,1.22
2018-09-01T23:25:35.424Z,1.20
2018-09-01T23:27:37.682Z,1.30
2018-09-01T23:29:39.958Z,1.25
2018-09-01T23:31:42.230Z,1.25
2018-09-01T23:33:44.467Z,1.20
2018-09-01T23:35:46.722Z,1.25
2018-09-01T23:37:49.032Z,1.20
2018-09-01T23:39:51.288Z,0.80
2018-09-01T23:41:53.554Z,1.00
2018-09-01T23:43:55.822Z,1.07
2018-09-01T23:45:58.080Z,1.10
2018-09-01T23:48:00.338Z,1.20
2018-09-01T23:50:02.638Z,1.17
2018-09-01T23:52:04.893Z,1.10
2018-09-01T23:54:07.175Z,1.10
2018-09-01T23:56:09.482Z,1.12
2018-09-01T23:58:11.724Z,1.00
